createdAt,value
2023-09-19T06:52:43.871Z,16.30
2023-09-19T06:57:56.408Z,17.00
2023-09-19T07:03:02.206Z,18.70
2023-09-19T07:08:08.476Z,18.40
2023-09-19T07:13:12.522Z,18.60
2023-09-19T07:18:18.119Z,19.00
2023-09-19T07:23:36.198Z,19.20
2023-09-19T07:28:47.516Z,19.80
2023-09-19T07:33:54.633Z,20.00
2023-09-19T07:39:09.442Z,20.00
2023-09-19T07:44:30.659Z,20.20
2023-09-19T07:49:34.040Z,21.00
2023-09-19T07:54:44.198Z,21.40
2023-09-19T07:59:51.551Z,21.10
2023-09-19T08:04:55.057Z,20.20
2023-09-19T08:10:00.304Z,19.80
2023-09-19T08:15:07.328Z,19.30
2023-09-19T08:20:17.378Z,18.90
2023-09-19T08:25:22.837Z,19.30
2023-09-19T08:30:29.356Z,19.30
2023-09-19T08:35:34.895Z,19.50
2023-09-19T08:40:43.349Z,20.30
2023-09-19T08:45:51.245Z,22.40
2023-09-19T08:50:59.070Z,22.80
2023-09-19T08:56:14.781Z,24.10
2023-09-19T09:01:25.830Z,25.80
2023-09-19T09:06:30.339Z,25.90
2023-09-19T09:11:38.523Z,25.50
2023-09-19T09:16:48.997Z,24.60
2023-09-19T09:21:57.847Z,24.90
2023-09-19T09:27:10.715Z,25.00
2023-09-19T09:32:24.526Z,24.80
2023-09-19T09:37:31.714Z,23.50
2023-09-19T09:42:40.389Z,22.60
2023-09-19T09:47:51.195Z,23.10
2023-09-19T09:52:57.215Z,22.60
2023-09-19T09:58:23.373Z,21.40
2023-09-19T10:03:41.654Z,22.10
2023-09-19T10:09:06.149Z,22.90
2023-09-19T10:14:13.559Z,23.50
2023-09-19T10:19:30.417Z,23.10
2023-09-19T10:24:43.019Z,22.90
2023-09-19T10:30:00.965Z,22.80
2023-09-19T10:35:08.212Z,23.10
2023-09-19T10:40:14.578Z,23.00
2023-09-19T10:45:21.803Z,23.50
2023-09-19T10:50:27.434Z,23.90
2023-09-19T10:55:32.149Z,23.20
2023-09-19T11:00:53.541Z,23.60
2023-09-19T11:06:18.220Z,23.50
2023-09-19T11:11:51.671Z,22.80
2023-09-19T11:17:44.455Z,22.00
2023-09-19T11:23:28.070Z,21.50
2023-09-19T11:28:40.743Z,21.30
2023-09-19T11:33:50.830Z,22.10
2023-09-19T11:39:10.257Z,22.60
2023-09-19T11:44:39.537Z,22.80
2023-09-19T11:49:44.025Z,23.40
2023-09-19T11:54:58.527Z,23.60
2023-09-19T12:00:06.235Z,23.10
2023-09-19T12:05:16.441Z,22.90
2023-09-19T12:10:34.791Z,23.10
2023-09-19T12:15:50.576Z,23.40
2023-09-19T12:21:08.457Z,23.30
2023-09-19T12:26:14.856Z,23.20
2023-09-19T12:31:28.175Z,22.90
2023-09-19T12:36:31.894Z,22.90
2023-09-19T12:41:41.868Z,22.90
2023-09-19T12:46:46.329Z,23.00
2023-09-19T12:51:49.902Z,23.30
2023-09-19T12:56:56.409Z,23.40
2023-09-19T13:02:07.324Z,23.60
2023-09-19T13:07:31.859Z,23.30
2023-09-19T13:12:42.757Z,22.60
2023-09-19T13:17:54.048Z,23.20
2023-09-19T13:23:01.915Z,23.00
2023-09-19T13:28:07.868Z,23.20
2023-09-19T13:33:15.709Z,23.00
2023-09-19T13:38:23.361Z,23.10
2023-09-19T13:43:37.249Z,23.00
2023-09-19T13:48:41.021Z,23.10
2023-09-19T13:53:47.290Z,22.80
2023-09-19T13:59:09.396Z,22.70
2023-09-19T14:04:18.146Z,22.70
2023-09-19T14:09:22.354Z,22.60
2023-09-19T14:14:27.102Z,22.40
2023-09-19T14:19:30.573Z,22.40
2023-09-19T14:24:34.798Z,22.30
2023-09-19T14:29:40.362Z,22.40
2023-09-19T14:34:44.198Z,22.40
2023-09-19T14:39:51.867Z,22.20
2023-09-19T14:44:56.762Z,22.00
2023-09-19T14:50:01.819Z,21.70
2023-09-19T14:55:07.297Z,21.60
2023-09-19T15:00:14.015Z,21.70
2023-09-19T15:05:25.697Z,21.80
2023-09-19T15:10:29.171Z,21.80
2023-09-19T15:15:35.948Z,21.80
2023-09-19T15:20:45.736Z,21.80
2023-09-19T15:25:50.859Z,21.80
2023-09-19T15:31:02.410Z,21.70
2023-09-19T15:36:07.238Z,21.60
2023-09-19T15:41:15.680Z,21.40
2023-09-19T15:46:26.027Z,21.30
2023-09-19T15:51:29.988Z,21.10
2023-09-19T15:56:37.197Z,21.00
2023-09-19T16:01:44.481Z,20.80
2023-09-19T16:06:48.296Z,20.70
2023-09-19T16:11:51.741Z,20.60
2023-09-19T16:17:01.592Z,20.50
2023-09-19T16:22:08.270Z,20.50
2023-09-19T16:27:12.898Z,20.50
2023-09-19T16:32:18.632Z,20.30
2023-09-19T16:37:23.999Z,20.00
2023-09-19T16:42:28.685Z,19.80
2023-09-19T16:47:35.486Z,19.50
2023-09-19T16:52:41.131Z,19.30
2023-09-19T16:57:46.059Z,18.90
2023-09-19T17:02:53.881Z,18.50
2023-09-19T17:08:02.311Z,18.10
2023-09-19T17:13:08.199Z,17.80
2023-09-19T17:18:13.245Z,17.70
2023-09-19T17:23:16.626Z,17.60
2023-09-19T17:28:20.112Z,17.60
2023-09-19T17:33:25.235Z,17.50
2023-09-19T17:38:28.765Z,17.40
2023-09-19T17:43:35.192Z,17.10
2023-09-19T17:48:44.425Z,16.80
2023-09-19T17:53:49.516Z,16.70
2023-09-19T17:58:56.486Z,16.50
2023-09-19T18:04:03.610Z,16.20
2023-09-19T18:09:08.820Z,16.00
2023-09-19T18:14:12.373Z,15.90
2023-09-19T18:19:20.049Z,15.90
2023-09-19T18:24:23.557Z,15.90
2023-09-19T18:29:27.293Z,15.70
2023-09-19T18:34:32.989Z,15.60
2023-09-19T18:39:37.334Z,15.50
2023-09-19T18:44:40.822Z,15.50
2023-09-19T18:49:45.578Z,15.40
2023-09-19T18:54:50.819Z,15.30
2023-09-19T18:59:54.292Z,15.20
2023-09-19T19:04:59.216Z,15.00
2023-09-19T19:10:04.116Z,14.90
2023-09-19T19:15:08.530Z,14.80
2023-09-19T19:20:15.327Z,14.70
2023-09-19T19:25:19.292Z,14.70
2023-09-19T19:30:22.887Z,14.60
2023-09-19T19:35:32.947Z,14.50
2023-09-19T19:40:36.389Z,14.40
2023-09-19T19:45:41.817Z,14.30
2023-09-19T19:51:08.186Z,14.40
2023-09-19T19:56:21.882Z,14.40
2023-09-19T20:01:26.338Z,14.40
2023-09-19T20:06:31.178Z,14.30
2023-09-19T20:11:34.572Z,14.20
2023-09-19T20:16:39.319Z,14.00
2023-09-19T20:21:45.510Z,13.90
2023-09-19T20:26:58.022Z,13.80
2023-09-19T20:32:02.477Z,13.70
2023-09-19T20:37:08.318Z,13.60
2023-09-19T20:42:13.625Z,13.40
2023-09-19T20:47:19.261Z,13.30
2023-09-19T20:52:25.446Z,13.20
2023-09-19T20:57:35.073Z,13.00
2023-09-19T21:02:39.582Z,12.90
2023-09-19T21:07:46.481Z,12.90
2023-09-19T21:12:50.830Z,12.80
2023-09-19T21:17:54.961Z,12.80
2023-09-19T21:23:05.791Z,12.80
2023-09-19T21:28:15.888Z,12.70
2023-09-19T21:33:22.228Z,12.60
2023-09-19T21:38:28.658Z,12.60
2023-09-19T21:43:36.717Z,12.70
2023-09-19T21:48:41.490Z,12.80
2023-09-19T21:53:46.496Z,13.20
2023-09-19T21:58:50.276Z,13.50
2023-09-19T22:03:54.774Z,13.70
2023-09-19T22:09:02.290Z,13.90
2023-09-19T22:14:05.615Z,14.00
2023-09-19T22:19:09.785Z,14.10
2023-09-19T22:24:16.837Z,14.10
2023-09-19T22:29:31.289Z,14.00
2023-09-19T22:34:34.682Z,14.00
2023-09-19T22:39:39.846Z,13.80
2023-09-19T22:44:46.250Z,13.60
2023-09-19T22:49:49.685Z,13.50
2023-09-19T22:54:54.977Z,13.50
2023-09-19T23:00:00.884Z,13.50
2023-09-19T23:05:05.014Z,13.30
2023-09-19T23:10:11.903Z,13.40
2023-09-19T23:15:19.138Z,13.20
2023-09-19T23:20:26.489Z,12.90
2023-09-19T23:25:37.010Z,12.70
2023-09-19T23:30:42.645Z,12.60
2023-09-19T23:35:46.273Z,12.40
2023-09-19T23:40:52.858Z,12.30
2023-09-19T23:45:56.194Z,12.20
2023-09-19T23:50:59.649Z,12.20
2023-09-19T23:56:06.526Z,12.20
